Time;durP1;ratioP1;P1;durP2;ratioP2;P2;SDS_P1;SDS_P2;PMS_P1;PMS_P2;Temp;Humidity;BMP_temperature;BMP_pressure;BME280_temperature;BME280_humidity;BME280_pressure;Samples;Min_cycle;Max_cycle;Signal;HPM_P1;HPM_P2
2023/08/01 00:02:03;;;;;;;2.90;1.60;;;;;;;15.25;98.29;98243.71;110705;1273;23181;-59
2023/08/01 00:04:31;;;;;;;1.70;1.40;;;;;;;15.19;98.37;98238.64;110222;1267;99343;-59
2023/08/01 00:07:00;;;;;;;2.90;1.70;;;;;;;15.14;98.63;98229.98;106944;1266;22529;-59
2023/08/01 00:09:29;;;;;;;2.40;1.80;;;;;;;15.10;98.85;98223.67;106940;1267;99123;-59
2023/08/01 00:11:58;;;;;;;3.10;1.90;;;;;;;15.08;98.88;98215.61;106890;1270;25121;-59
2023/08/01 00:14:27;;;;;;;2.10;1.90;;;;;;;15.07;98.69;98215.42;107027;1267;24587;-64
2023/08/01 00:16:56;;;;;;;2.30;1.80;;;;;;;15.04;98.93;98213.42;107022;1270;99790;-65
2023/08/01 00:19:24;;;;;;;3.10;1.70;;;;;;;15.02;99.14;98215.17;107071;1267;22521;-60
2023/08/01 00:21:53;;;;;;;3.10;1.80;;;;;;;15.00;99.04;98214.02;107084;1267;98904;-60
2023/08/01 00:24:31;;;;;;;2.10;1.80;;;;;;;14.99;99.39;98215.38;107136;1274;25284;-61
2023/08/01 00:27:00;;;;;;;4.30;1.60;;;;;;;15.00;99.74;98215.64;107155;1268;22513;-60
2023/08/01 00:29:30;;;;;;;4.80;1.90;;;;;;;15.00;99.92;98214.73;106858;1273;22507;-58
2023/08/01 00:31:58;;;;;;;2.80;2.10;;;;;;;15.00;99.94;98215.63;106881;1262;22647;-59
2023/08/01 00:34:27;;;;;;;2.90;1.80;;;;;;;15.03;100.00;98217.55;106796;1270;98917;-58
2023/08/01 00:36:57;;;;;;;3.40;1.70;;;;;;;15.02;100.00;98215.34;106919;1267;24251;-60
2023/08/01 00:39:26;;;;;;;3.70;1.90;;;;;;;15.03;100.00;98211.61;106865;1272;99459;-59
2023/08/01 00:41:58;;;;;;;3.00;2.20;;;;;;;15.05;100.00;98214.92;107046;1267;25332;-61
2023/08/01 00:44:27;;;;;;;3.40;1.90;;;;;;;15.06;100.00;98210.09;106932;1267;22683;-62
2023/08/01 00:46:56;;;;;;;3.80;1.80;;;;;;;15.09;100.00;98204.85;106798;1270;99155;-62
2023/08/01 00:49:25;;;;;;;2.20;1.60;;;;;;;15.13;100.00;98199.98;107042;1271;24192;-58
2023/08/01 00:51:54;;;;;;;1.70;1.50;;;;;;;15.15;100.00;98199.60;106872;1267;99110;-61
2023/08/01 00:54:23;;;;;;;2.10;1.60;;;;;;;15.17;100.00;98199.10;107132;1273;22532;-61
2023/08/01 00:56:52;;;;;;;2.70;2.50;;;;;;;15.16;100.00;98192.98;106921;1270;22520;-59
2023/08/01 00:59:21;;;;;;;2.60;1.80;;;;;;;15.16;100.00;98193.38;106932;1267;98882;-60
2023/08/01 01:01:50;;;;;;;2.50;1.70;;;;;;;15.19;100.00;98196.04;106960;1267;22531;-59
2023/08/01 01:04:22;;;;;;;2.90;1.70;;;;;;;15.24;100.00;98196.98;107092;1270;99169;-60
2023/08/01 01:07:03;;;;;;;2.30;1.80;;;;;;;15.29;100.00;98190.24;107087;1268;22520;-60
2023/08/01 01:09:32;;;;;;;2.80;2.50;;;;;;;15.29;100.00;98185.70;106933;1267;99271;-61
2023/08/01 01:12:01;;;;;;;2.10;1.70;;;;;;;15.28;100.00;98180.35;106957;1273;23126;-59
2023/08/01 01:14:30;;;;;;;3.60;1.90;;;;;;;15.29;100.00;98183.63;106939;1269;22529;-59
2023/08/01 01:16:59;;;;;;;1.80;1.60;;;;;;;15.28;100.00;98181.55;107068;1267;99169;-59
2023/08/01 01:19:28;;;;;;;1.70;1.50;;;;;;;15.28;100.00;98176.15;106958;1267;22537;-60
2023/08/01 01:21:58;;;;;;;1.80;1.50;;;;;;;15.28;100.00;98172.08;106890;1271;99106;-59
2023/08/01 01:24:28;;;;;;;1.90;1.50;;;;;;;15.28;100.00;98171.75;106922;1269;22672;-59
2023/08/01 01:26:59;;;;;;;2.40;1.50;;;;;;;15.27;100.00;98162.73;107060;1267;25324;-63
2023/08/01 01:29:29;;;;;;;3.60;1.50;;;;;;;15.24;100.00;98159.52;106913;1269;24203;-60
2023/08/01 01:32:06;;;;;;;1.90;1.50;;;;;;;15.21;100.00;98156.25;106995;1270;25571;-59
2023/08/01 01:34:35;;;;;;;1.40;1.20;;;;;;;15.20;100.00;98153.41;106937;1267;99353;-60
2023/08/01 01:37:07;;;;;;;3.00;1.50;;;;;;;15.20;100.00;98148.65;107056;1273;22570;-59
2023/08/01 01:39:36;;;;;;;3.10;1.40;;;;;;;15.17;100.00;98151.91;106991;1269;99361;-62
2023/08/01 01:42:06;;;;;;;1.80;1.30;;;;;;;15.21;100.00;98147.02;106972;1270;22535;-62
2023/08/01 01:44:35;;;;;;;2.10;1.60;;;;;;;15.21;100.00;98147.52;107003;1270;26357;-59
2023/08/01 01:47:12;;;;;;;4.70;1.60;;;;;;;15.22;100.00;98143.36;106939;1270;99636;-60
2023/08/01 01:50:03;;;;;;;4.10;1.50;;;;;;;15.22;100.00;98144.30;107094;1270;25507;-62
2023/08/01 01:52:32;;;;;;;3.30;1.80;;;;;;;15.21;100.00;98137.33;107078;1266;99895;-61
2023/08/01 01:55:08;;;;;;;1.30;1.20;;;;;;;15.21;100.00;98131.91;107265;1267;22580;-60
2023/08/01 01:58:13;;;;;;;;;;;;;;;;;;;;;
2023/08/01 02:00:45;;;;;;;2.10;1.60;;;;;;;15.19;100.00;98127.67;107047;1269;25434;-60
2023/08/01 02:03:45;;;;;;;;;;;;;;;;;;;;;
2023/08/01 02:06:23;;;;;;;2.10;1.40;;;;;;;15.20;100.00;98123.09;107260;1267;24396;-60
2023/08/01 02:08:54;;;;;;;1.90;1.50;;;;;;;15.21;100.00;98122.08;107068;1267;24397;-63
2023/08/01 02:11:23;;;;;;;1.80;1.20;;;;;;;15.22;100.00;98122.55;106850;1267;98938;-61
2023/08/01 02:13:56;;;;;;;1.70;1.10;;;;;;;15.23;100.00;98115.46;107135;1267;22779;-62
2023/08/01 02:16:31;;;;;;;1.30;1.20;;;;;;;15.25;100.00;98109.31;106902;1272;99123;-60
2023/08/01 02:19:03;;;;;;;1.10;1.00;;;;;;;15.25;100.00;98103.27;106913;1270;25322;-60
2023/08/01 02:21:32;;;;;;;2.20;1.40;;;;;;;15.25;100.00;98099.27;106872;1266;99336;-61
2023/08/01 02:24:04;;;;;;;2.40;1.50;;;;;;;15.25;100.00;98095.42;107050;1267;25503;-59
2023/08/01 02:26:33;;;;;;;2.30;1.40;;;;;;;15.23;100.00;98097.52;106877;1270;22617;-59
2023/08/01 02:29:02;;;;;;;1.60;1.30;;;;;;;15.21;100.00;98092.66;106932;1267;99159;-58
2023/08/01 02:31:32;;;;;;;2.30;1.40;;;;;;;15.21;100.00;98089.15;106971;1272;22523;-58
2023/08/01 02:34:09;;;;;;;1.70;1.40;;;;;;;15.22;100.00;98084.70;106907;1267;99642;-59
2023/08/01 02:36:41;;;;;;;2.90;1.70;;;;;;;15.22;100.00;98082.78;107066;1273;24371;-62
2023/08/01 02:39:16;;;;;;;1.90;1.60;;;;;;;15.20;100.00;98081.36;107075;1270;99717;-61
2023/08/01 02:41:51;;;;;;;3.80;2.00;;;;;;;15.21;100.00;98081.81;106955;1266;22577;-61
2023/08/01 02:44:22;;;;;;;1.90;1.30;;;;;;;15.21;100.00;98080.72;106867;1270;25605;-59
2023/08/01 02:46:52;;;;;;;1.50;1.30;;;;;;;15.21;100.00;98079.17;106804;1269;99142;-62
2023/08/01 02:49:24;;;;;;;2.10;1.70;;;;;;;15.20;100.00;98073.43;107072;1267;22663;-58
2023/08/01 02:51:53;;;;;;;1.90;1.50;;;;;;;15.20;100.00;98073.84;106808;1273;99296;-60
2023/08/01 02:54:25;;;;;;;3.90;1.60;;;;;;;15.19;100.00;98072.14;107028;1267;22520;-61
2023/08/01 02:56:57;;;;;;;2.40;1.70;;;;;;;15.21;100.00;98071.61;106921;1267;25398;-62
2023/08/01 02:59:29;;;;;;;1.70;1.30;;;;;;;15.22;100.00;98070.46;106855;1269;98971;-62
2023/08/01 03:02:00;;;;;;;4.60;1.60;;;;;;;15.24;100.00;98067.14;106931;1267;22626;-60
2023/08/01 03:04:29;;;;;;;1.90;1.40;;;;;;;15.23;100.00;98071.05;106917;1269;99539;-60
2023/08/01 03:07:14;;;;;;;3.60;1.40;;;;;;;15.22;100.00;98068.48;106873;1269;22527;-60
2023/08/01 03:09:43;;;;;;;1.60;1.20;;;;;;;15.23;100.00;98064.27;106725;1274;102097;-62
2023/08/01 03:12:12;;;;;;;1.80;1.40;;;;;;;15.26;100.00;98063.99;106953;1267;25229;-62
2023/08/01 03:14:43;;;;;;;2.60;1.70;;;;;;;15.26;100.00;98065.22;107041;1267;24199;-62
2023/08/01 03:17:15;;;;;;;2.90;1.50;;;;;;;15.26;100.00;98061.70;106941;1268;99200;-61
2023/08/01 03:19:44;;;;;;;2.30;1.50;;;;;;;15.27;100.00;98062.45;107029;1267;22570;-61
2023/08/01 03:22:13;;;;;;;1.90;1.40;;;;;;;15.28;100.00;98061.70;106874;1267;99664;-59
2023/08/01 03:25:07;;;;;;;2.30;1.60;;;;;;;15.27;100.00;98062.33;106984;1269;24218;-60
2023/08/01 03:27:36;;;;;;;2.90;1.80;;;;;;;15.28;100.00;98063.61;106891;1269;99315;-59
2023/08/01 03:30:08;;;;;;;2.30;1.50;;;;;;;15.31;100.00;98064.18;106994;1267;22534;-60
2023/08/01 03:32:37;;;;;;;2.30;1.60;;;;;;;15.32;100.00;98065.48;106959;1267;22645;-59
2023/08/01 03:35:09;;;;;;;1.80;1.50;;;;;;;15.36;100.00;98061.13;106851;1267;100086;-62
2023/08/01 03:37:42;;;;;;;1.60;1.30;;;;;;;15.36;100.00;98056.56;106907;1266;23002;-60
2023/08/01 03:40:11;;;;;;;2.00;1.60;;;;;;;15.36;100.00;98051.80;106834;1267;99120;-59
2023/08/01 03:42:43;;;;;;;2.30;1.50;;;;;;;15.37;100.00;98046.05;106948;1267;24938;-58
2023/08/01 03:45:12;;;;;;;2.00;1.70;;;;;;;15.38;100.00;98046.55;106956;1270;99327;-59
2023/08/01 03:47:42;;;;;;;2.20;1.50;;;;;;;15.37;100.00;98043.81;106934;1267;24361;-62
2023/08/01 03:50:13;;;;;;;2.00;1.50;;;;;;;15.38;100.00;98041.95;106842;1269;24327;-59
2023/08/01 03:52:46;;;;;;;2.00;1.50;;;;;;;15.41;100.00;98038.55;106867;1269;99520;-58
2023/08/01 03:55:18;;;;;;;3.20;1.70;;;;;;;15.43;100.00;98039.87;107883;1267;24211;-60
2023/08/01 03:57:50;;;;;;;6.80;2.00;;;;;;;15.49;100.00;98040.31;106898;1266;99375;-60
2023/08/01 04:00:21;;;;;;;3.90;2.50;;;;;;;15.49;100.00;98039.09;106914;1267;22659;-60
2023/08/01 04:02:50;;;;;;;3.60;1.70;;;;;;;15.48;100.00;98032.62;107041;1267;25246;-60
2023/08/01 04:05:32;;;;;;;2.80;1.90;;;;;;;15.51;100.00;98035.16;106931;1270;99409;-60
2023/08/01 04:08:03;;;;;;;2.60;1.80;;;;;;;15.52;100.00;98035.94;106948;1269;22527;-60
2023/08/01 04:10:55;;;;;;;2.60;1.80;;;;;;;15.54;100.00;98036.31;107126;1267;99577;-61
2023/08/01 04:13:27;;;;;;;2.30;1.80;;;;;;;15.55;100.00;98034.94;107140;1267;25281;-60
2023/08/01 04:16:04;;;;;;;2.20;1.60;;;;;;;15.56;100.00;98034.84;106781;1269;99350;-60
2023/08/01 04:18:36;;;;;;;5.40;1.90;;;;;;;15.58;100.00;98037.27;107049;1267;24182;-61
2023/08/01 04:21:15;;;;;;;4.00;1.60;;;;;;;15.60;100.00;98033.98;106946;1267;99294;-60
2023/08/01 04:23:45;;;;;;;1.80;1.60;;;;;;;15.62;100.00;98032.56;107018;1270;22524;-60
2023/08/01 04:26:16;;;;;;;2.70;1.60;;;;;;;15.63;100.00;98026.67;106953;1267;22515;-62
2023/08/01 04:28:47;;;;;;;2.40;1.60;;;;;;;15.64;100.00;98023.19;106937;1269;99948;-60
2023/08/01 04:31:19;;;;;;;3.60;1.50;;;;;;;15.69;100.00;98016.50;106947;1267;24231;-62
2023/08/01 04:33:48;;;;;;;4.10;2.00;;;;;;;15.70;100.00;98014.09;106865;1267;99828;-59
2023/08/01 04:36:17;;;;;;;3.10;1.70;;;;;;;15.72;100.00;98010.16;107024;1269;24405;-57
2023/08/01 04:38:46;;;;;;;4.90;1.60;;;;;;;15.71;100.00;98007.33;106957;1269;22529;-60
2023/08/01 04:41:15;;;;;;;2.80;2.10;;;;;;;15.72;100.00;98010.06;106905;1269;99231;-59
2023/08/01 04:43:47;;;;;;;4.10;1.60;;;;;;;15.72;100.00;98010.36;107030;1267;25284;-61
2023/08/01 04:46:16;;;;;;;2.60;1.70;;;;;;;15.75;100.00;98012.55;106966;1273;99116;-59
2023/08/01 04:48:45;;;;;;;1.70;1.50;;;;;;;15.78;100.00;98010.36;107027;1272;22642;-60
2023/08/01 04:51:17;;;;;;;1.90;1.70;;;;;;;15.85;100.00;98001.23;107047;1267;99268;-59
2023/08/01 04:53:48;;;;;;;1.90;1.70;;;;;;;15.89;100.00;98002.10;106919;1267;25357;-57
2023/08/01 04:56:18;;;;;;;6.60;2.00;;;;;;;15.90;100.00;98003.41;107140;1267;25325;-59
2023/08/01 04:58:49;;;;;;;1.90;1.70;;;;;;;15.94;100.00;97996.56;106893;1268;99327;-61
2023/08/01 05:01:27;;;;;;;2.70;1.80;;;;;;;15.96;100.00;97997.41;106990;1257;24259;-58
2023/08/01 05:03:59;;;;;;;2.60;1.70;;;;;;;15.97;100.00;97997.63;106973;1269;99265;-59
2023/08/01 05:06:32;;;;;;;1.70;1.40;;;;;;;16.02;100.00;97998.52;107012;1267;25237;-59
2023/08/01 05:09:02;;;;;;;2.90;1.70;;;;;;;16.02;100.00;97995.80;107090;1266;22630;-62
2023/08/01 05:11:36;;;;;;;1.90;1.40;;;;;;;16.01;100.00;97996.27;106957;1270;24218;-60
2023/08/01 05:14:05;;;;;;;2.60;1.70;;;;;;;16.06;100.00;97994.01;106983;1269;23881;-58
2023/08/01 05:16:35;;;;;;;1.90;1.40;;;;;;;16.08;100.00;97994.80;107007;1267;99414;-59
2023/08/01 05:19:04;;;;;;;2.50;1.50;;;;;;;16.11;100.00;97994.13;107011;1267;22521;-60
2023/08/01 05:21:32;;;;;;;5.80;1.60;;;;;;;16.14;100.00;97989.85;106946;1267;99691;-59
2023/08/01 05:24:01;;;;;;;2.90;1.90;;;;;;;16.14;100.00;97985.66;106996;1269;22527;-59
2023/08/01 05:26:39;;;;;;;3.20;1.90;;;;;;;16.14;100.00;97987.21;107017;1269;24231;-61
2023/08/01 05:29:11;;;;;;;4.10;1.70;;;;;;;16.18;100.00;97981.50;106884;1267;99224;-60
2023/08/01 05:31:40;;;;;;;3.00;1.50;;;;;;;16.27;100.00;97979.91;106891;1268;22529;-60
2023/08/01 05:34:09;;;;;;;3.30;2.00;;;;;;;16.31;100.00;97980.03;107030;1270;99207;-60
2023/08/01 05:36:40;;;;;;;1.70;1.40;;;;;;;16.37;100.00;97975.30;107008;1267;22663;-59
2023/08/01 05:39:12;;;;;;;2.00;1.70;;;;;;;16.44;100.00;97975.64;106835;1269;99260;-60
2023/08/01 05:41:50;;;;;;;5.40;2.10;;;;;;;16.53;100.00;97974.45;107022;1267;22519;-59
2023/08/01 05:44:19;;;;;;;1.80;1.40;;;;;;;16.59;100.00;97973.42;106987;1269;22752;-59
2023/08/01 05:46:48;;;;;;;3.40;1.70;;;;;;;16.59;100.00;97972.26;106930;1264;99312;-59
2023/08/01 05:49:18;;;;;;;3.90;1.80;;;;;;;16.49;100.00;97967.11;106990;1267;23316;-60
2023/08/01 05:51:46;;;;;;;2.60;1.90;;;;;;;16.52;100.00;97969.08;106870;1269;99839;-60
2023/08/01 05:54:16;;;;;;;5.80;2.50;;;;;;;16.53;100.00;97968.45;106949;1266;22528;-58
2023/08/01 05:56:48;;;;;;;2.70;2.10;;;;;;;16.57;100.00;97965.09;106994;1268;22523;-59
2023/08/01 05:59:17;;;;;;;3.60;1.90;;;;;;;16.60;100.00;97966.66;106990;1266;98987;-58
2023/08/01 06:01:46;;;;;;;2.10;1.70;;;;;;;16.56;100.00;97969.14;107099;1273;22773;-58
2023/08/01 06:04:19;;;;;;;6.00;2.60;;;;;;;16.57;100.00;97970.73;106624;1268;372291;-58
2023/08/01 06:06:48;;;;;;;3.70;1.80;;;;;;;16.46;100.00;97970.38;106874;1275;24199;-58
2023/08/01 06:09:26;;;;;;;1.60;1.40;;;;;;;16.46;100.00;97965.41;106858;1267;99318;-58
2023/08/01 06:11:55;;;;;;;1.90;1.70;;;;;;;16.49;100.00;97969.67;107038;1262;22546;-59
2023/08/01 06:14:24;;;;;;;2.80;1.80;;;;;;;16.46;100.00;97968.24;106939;1256;24253;-61
2023/08/01 06:16:57;;;;;;;2.70;1.70;;;;;;;16.50;100.00;97965.42;106822;1272;99104;-59
2023/08/01 06:19:31;;;;;;;2.20;1.50;;;;;;;16.61;100.00;97965.48;107069;1270;22569;-60
2023/08/01 06:22:03;;;;;;;3.00;1.50;;;;;;;16.66;100.00;97966.27;106890;1261;99166;-58
2023/08/01 06:24:32;;;;;;;2.20;1.80;;;;;;;16.59;100.00;97959.91;106925;1267;24256;-58
2023/08/01 06:27:01;;;;;;;3.20;1.90;;;;;;;16.56;100.00;97957.25;106986;1266;22520;-59
2023/08/01 06:29:32;;;;;;;2.90;1.80;;;;;;;16.51;100.00;97956.39;106873;1269;24229;-60
2023/08/01 06:32:05;;;;;;;2.10;1.70;;;;;;;16.47;100.00;97950.44;107034;1269;25322;-57
2023/08/01 06:34:37;;;;;;;3.00;2.20;;;;;;;16.48;100.00;97948.70;106969;1266;99129;-58
2023/08/01 06:37:06;;;;;;;2.20;1.60;;;;;;;16.52;100.00;97935.88;107096;1251;25350;-58
2023/08/01 06:39:43;;;;;;;2.40;1.70;;;;;;;16.63;100.00;97936.88;106910;1267;99299;-57
2023/08/01 06:42:12;;;;;;;3.70;1.80;;;;;;;16.71;100.00;97932.16;107063;1272;25309;-58
2023/08/01 06:44:46;;;;;;;2.00;1.70;;;;;;;16.65;100.00;97932.41;106890;1273;22669;-46
2023/08/01 06:47:22;;;;;;;;;;;;;;;16.62;100.00;97926.10;107154;1267;99121;-59
2023/08/01 06:49:52;;;;;;;2.50;1.90;;;;;;;16.58;100.00;97935.46;107068;1269;24500;-60
2023/08/01 06:52:20;;;;;;;3.10;2.20;;;;;;;16.51;100.00;97932.94;107061;1269;101540;-58
2023/08/01 06:54:49;;;;;;;4.30;2.20;;;;;;;16.50;100.00;97931.65;107024;1269;25362;-58
2023/08/01 06:57:21;;;;;;;3.50;2.20;;;;;;;16.45;100.00;97933.13;106855;1272;99421;-56
2023/08/01 06:59:50;;;;;;;2.20;1.70;;;;;;;16.38;100.00;97927.23;106950;1266;22553;-57
2023/08/01 07:02:19;;;;;;;2.00;1.60;;;;;;;16.39;100.00;97924.06;106997;1267;25534;-58
2023/08/01 07:04:48;;;;;;;4.10;2.20;;;;;;;16.43;100.00;97924.13;106946;1271;99602;-58
2023/08/01 07:07:16;;;;;;;5.40;2.20;;;;;;;16.41;100.00;97918.73;106847;1266;24030;-58
2023/08/01 07:09:45;;;;;;;4.20;2.20;;;;;;;16.36;100.00;97918.71;106941;1266;99506;-59
2023/08/01 07:12:14;;;;;;;3.00;2.30;;;;;;;16.33;100.00;97914.54;107010;1266;25231;-59
2023/08/01 07:14:43;;;;;;;3.70;2.40;;;;;;;16.27;100.00;97915.34;107206;1267;25387;-57
2023/08/01 07:17:12;;;;;;;3.00;2.00;;;;;;;16.18;100.00;97915.56;107020;1266;99065;-57
2023/08/01 07:19:41;;;;;;;4.70;2.20;;;;;;;16.10;100.00;97907.57;107088;1266;22600;-57
2023/08/01 07:22:10;;;;;;;3.30;2.40;;;;;;;16.07;100.00;97911.91;106871;1266;99087;-59
2023/08/01 07:24:40;;;;;;;3.70;2.20;;;;;;;16.05;100.00;97908.39;107139;1266;25334;-60
2023/08/01 07:27:12;;;;;;;4.30;2.10;;;;;;;16.02;100.00;97905.59;106985;1267;99345;-58
2023/08/01 07:29:47;;;;;;;4.00;1.60;;;;;;;16.04;100.00;97897.64;106966;1274;25360;-58
2023/08/01 07:32:19;;;;;;;3.20;2.10;;;;;;;16.05;100.00;97901.08;107190;1269;25486;-58
2023/08/01 07:34:47;;;;;;;2.70;2.20;;;;;;;16.05;100.00;97899.77;107042;1269;99278;-58
2023/08/01 07:37:16;;;;;;;4.60;2.30;;;;;;;16.06;100.00;97893.39;107108;1266;24783;-61
2023/08/01 07:39:45;;;;;;;3.00;2.20;;;;;;;16.06;100.00;97889.92;106990;1268;99346;-59
2023/08/01 07:42:14;;;;;;;3.80;1.90;;;;;;;16.15;100.00;97893.55;107037;1266;24206;-59
2023/08/01 07:44:43;;;;;;;4.40;2.00;;;;;;;16.29;100.00;97885.83;106867;1269;22528;-60
2023/08/01 07:47:12;;;;;;;2.00;1.80;;;;;;;16.44;100.00;97885.11;106765;1268;99955;-61
2023/08/01 07:49:40;;;;;;;4.20;1.80;;;;;;;16.54;100.00;97883.36;107109;1266;24180;-59
2023/08/01 07:52:10;;;;;;;1.30;1.20;;;;;;;16.56;100.00;97878.60;107315;1267;99095;-58
2023/08/01 07:54:42;;;;;;;2.00;1.60;;;;;;;16.59;100.00;97873.02;107028;1267;22626;-61
2023/08/01 07:57:12;;;;;;;2.60;1.50;;;;;;;16.63;100.00;97873.27;106944;1260;99262;-58
2023/08/01 07:59:41;;;;;;;2.20;1.60;;;;;;;16.74;100.00;97869.86;107213;1269;22510;-59
2023/08/01 08:02:13;;;;;;;1.70;1.20;;;;;;;16.87;100.00;97878.81;107029;1269;24241;-59
2023/08/01 08:04:43;;;;;;;1.60;1.20;;;;;;;16.85;100.00;97870.89;106895;1266;99084;-59
2023/08/01 08:07:23;;;;;;;1.60;1.10;;;;;;;16.88;100.00;97871.08;107231;1266;26435;-59
2023/08/01 08:09:55;;;;;;;1.60;1.00;;;;;;;16.95;100.00;97868.83;107093;1268;99192;-58
2023/08/01 08:12:25;;;;;;;1.70;1.00;;;;;;;17.06;100.00;97868.18;106998;1266;22630;-58
2023/08/01 08:15:09;;;;;;;2.10;1.50;;;;;;;17.14;100.00;97865.23;107055;1259;99223;-59
2023/08/01 08:17:39;;;;;;;1.40;1.20;;;;;;;17.19;100.00;97859.66;107015;1269;22609;-58
2023/08/01 08:20:26;;;;;;;;;;;;;;;17.29;100.00;97862.86;106968;1266;24183;-57
2023/08/01 08:22:55;;;;;;;1.60;1.10;;;;;;;17.27;100.00;97865.02;107236;1269;84587;-58
2023/08/01 08:25:25;;;;;;;0.80;0.80;;;;;;;17.17;100.00;97865.95;107255;1274;24210;-56
2023/08/01 08:27:55;;;;;;;2.50;1.90;;;;;;;17.13;100.00;97862.31;106837;1265;99389;-60
2023/08/01 08:30:25;;;;;;;11.30;10.20;;;;;;;17.21;100.00;97861.21;107047;1272;25329;-62
2023/08/01 08:33:04;;;;;;;7.10;6.40;;;;;;;17.28;100.00;97862.03;106941;1266;22541;-57
2023/08/01 08:35:37;;;;;;;21.30;19.30;;;;;;;17.26;100.00;97865.79;107131;1267;24232;-56
2023/08/01 08:38:12;;;;;;;16.60;15.10;;;;;;;17.26;100.00;97861.98;107024;1272;22547;-62
2023/08/01 08:41:07;;;;;;;16.10;14.60;;;;;;;17.31;100.00;97861.21;106895;1267;99701;-69
2023/08/01 08:43:41;;;;;;;;;;;;;;;17.50;100.00;97863.21;106306;1278;22986;-62
2023/08/01 08:46:12;;;;;;;7.70;6.60;;;;;;;17.48;100.00;97857.80;106690;1275;87289;-56
2023/08/01 08:48:42;;;;;;;27.80;11.70;;;;;;;17.57;100.00;97859.36;106335;1275;24220;-62
2023/08/01 08:51:12;;;;;;;18.60;8.80;;;;;;;17.89;100.00;97854.08;106349;1278;99713;-60
2023/08/01 08:53:52;;;;;;;12.60;5.40;;;;;;;18.10;100.00;97850.70;106489;1275;22570;-64
2023/08/01 08:56:22;;;;;;;17.30;7.60;;;;;;;18.00;100.00;97854.39;106618;1276;25382;-60
2023/08/01 08:58:53;;;;;;;23.50;7.80;;;;;;;17.80;100.00;97854.14;106404;1274;99542;-57
2023/08/01 09:01:22;;;;;;;19.90;6.60;;;;;;;17.71;100.00;97851.44;106484;1275;26713;-64
2023/08/01 09:03:52;;;;;;;26.00;7.10;;;;;;;17.71;100.00;97848.73;106444;1275;99677;-59
2023/08/01 09:06:25;;;;;;;18.60;5.50;;;;;;;17.76;100.00;97842.59;106670;1276;25490;-59
2023/08/01 09:09:10;;;;;;;28.20;7.90;;;;;;;17.81;100.00;97849.30;106711;1274;22675;-60
2023/08/01 09:11:46;;;;;;;20.00;7.60;;;;;;;17.90;100.00;97846.77;106789;1278;25343;-59
2023/08/01 09:14:16;;;;;;;40.60;36.20;;;;;;;18.03;100.00;97847.93;106604;1275;25486;-61
2023/08/01 09:16:49;;;;;;;9.70;8.90;;;;;;;18.23;100.00;97842.49;106672;1259;99775;-60
2023/08/01 09:19:19;;;;;;;3.50;2.80;;;;;;;18.42;100.00;97842.82;106407;1274;22549;-60
2023/08/01 09:21:49;;;;;;;3.50;2.30;;;;;;;18.53;100.00;97839.33;106950;1271;101656;-61
2023/08/01 09:24:20;;;;;;;1.90;1.40;;;;;;;18.68;100.00;97834.94;107243;1268;23182;-61
2023/08/01 09:26:52;;;;;;;1.70;1.20;;;;;;;18.80;100.00;97835.33;107245;1266;22527;-61
2023/08/01 09:29:22;;;;;;;2.40;1.70;;;;;;;18.87;100.00;97834.25;107057;1266;99097;-61
2023/08/01 09:31:51;;;;;;;1.80;1.30;;;;;;;18.82;100.00;97832.45;107186;1267;27562;-65
2023/08/01 09:34:33;;;;;;;1.40;1.30;;;;;;;18.70;100.00;97831.35;107143;1269;99587;-61
2023/08/01 09:37:05;;;;;;;1.30;0.60;;;;;;;18.65;100.00;97829.79;107144;1266;22695;-61
2023/08/01 09:39:34;;;;;;;0.80;0.50;;;;;;;18.71;100.00;97828.05;106861;1266;99274;-59
2023/08/01 09:42:06;;;;;;;0.90;0.70;;;;;;;18.76;100.00;97830.39;106992;1270;23158;-60
2023/08/01 09:44:48;;;;;;;0.80;0.80;;;;;;;18.72;100.00;97830.23;106970;1269;22516;-61
2023/08/01 09:47:19;;;;;;;1.10;0.70;;;;;;;18.59;100.00;97831.86;107026;1271;100767;-61
2023/08/01 09:49:52;;;;;;;13.30;12.00;;;;;;;18.52;100.00;97831.12;107065;1266;22529;-61
2023/08/01 09:52:31;;;;;;;6.70;6.10;;;;;;;18.56;100.00;97826.32;107095;1267;100392;-60
2023/08/01 09:55:00;;;;;;;19.20;17.20;;;;;;;18.59;100.00;97825.32;107826;1269;25221;-60
2023/08/01 09:57:41;;;;;;;15.20;13.80;;;;;;;18.62;100.00;97821.69;107053;1267;99640;-62
2023/08/01 10:00:11;;;;;;;3.10;2.80;;;;;;;18.60;100.00;97819.82;107311;1268;22627;-61
2023/08/01 10:02:46;;;;;;;3.80;2.20;;;;;;;18.58;100.00;97817.55;107113;1266;22680;-61
2023/08/01 10:05:18;;;;;;;7.20;3.50;;;;;;;18.52;100.00;97818.11;107134;1266;99531;-62
2023/08/01 10:07:51;;;;;;;17.70;7.20;;;;;;;18.51;100.00;97816.31;107461;1266;24749;-61
2023/08/01 10:10:24;;;;;;;7.10;2.80;;;;;;;18.47;100.00;97817.33;109780;1272;100184;-64
2023/08/01 10:13:01;;;;;;;6.10;2.70;;;;;;;18.45;100.00;97813.10;107007;1266;24243;-62
2023/08/01 10:15:34;;;;;;;12.50;7.50;;;;;;;18.48;100.00;97816.23;108435;1269;99262;-61
2023/08/01 10:18:04;;;;;;;5.80;5.20;;;;;;;18.68;100.00;97813.27;107177;1270;23224;-62
2023/08/01 10:20:35;;;;;;;2.50;2.30;;;;;;;19.23;100.00;97806.23;106867;1265;22539;-63
2023/08/01 10:23:06;;;;;;;2.20;1.60;;;;;;;19.87;100.00;97802.25;107148;1266;99476;-64
2023/08/01 10:25:37;;;;;;;13.90;8.10;;;;;;;20.54;100.00;97800.06;107540;1268;22534;-65
2023/08/01 10:28:14;;;;;;;6.10;3.50;;;;;;;21.04;100.00;97795.30;106982;1266;99222;-63
2023/08/01 10:30:44;;;;;;;4.70;2.30;;;;;;;21.25;100.00;97793.59;107089;1272;22716;-61
2023/08/01 10:33:15;;;;;;;1.80;0.70;;;;;;;21.40;100.00;97790.95;107480;1275;99642;-63
2023/08/01 10:35:55;;;;;;;2.10;1.50;;;;;;;21.89;100.00;97786.46;107193;1269;24375;-60
2023/08/01 10:38:24;;;;;;;1.60;1.20;;;;;;;22.38;100.00;97783.63;107254;1266;22603;-62
2023/08/01 10:40:54;;;;;;;6.20;2.90;;;;;;;22.60;100.00;97783.96;107316;1266;99058;-66
2023/08/01 10:43:25;;;;;;;5.20;2.40;;;;;;;23.18;100.00;97778.53;107329;1272;26569;-63
2023/08/01 10:46:02;;;;;;;2.30;1.70;;;;;;;23.61;100.00;97773.92;107175;1262;99495;-63
2023/08/01 10:48:31;;;;;;;1.20;0.80;;;;;;;23.23;100.00;97775.54;107032;1266;24268;-63
2023/08/01 10:51:02;;;;;;;1.20;0.80;;;;;;;23.14;100.00;97768.80;107289;1271;22653;-64
2023/08/01 10:53:39;;;;;;;2.10;1.10;;;;;;;23.12;100.00;97767.44;107267;1267;98843;-63
2023/08/01 10:56:20;;;;;;;2.80;1.10;;;;;;;22.79;100.00;97771.83;107811;1266;22533;-63
2023/08/01 10:58:48;;;;;;;1.20;1.00;;;;;;;22.48;100.00;97767.34;107058;1266;99221;-64
2023/08/01 11:01:17;;;;;;;1.20;0.90;;;;;;;22.19;100.00;97770.23;106934;1260;24232;-62
2023/08/01 11:03:48;;;;;;;1.80;1.10;;;;;;;21.95;100.00;97766.77;106841;1265;99265;-63
2023/08/01 11:06:51;;;;;;;1.30;1.00;;;;;;;21.64;99.80;97769.22;107009;1272;22526;-67
2023/08/01 11:10:04;;;;;;;1.40;1.20;;;;;;;21.39;99.60;97763.26;106973;1269;99286;-67
2023/08/01 11:12:41;;;;;;;1.70;1.50;;;;;;;21.13;98.13;97768.11;107356;1266;22523;-68
2023/08/01 11:15:14;;;;;;;2.70;1.20;;;;;;;20.95;97.89;97763.48;107416;1272;99077;-66
2023/08/01 11:17:54;;;;;;;1.40;0.80;;;;;;;20.81;97.80;97761.60;107062;1266;24395;-66
2023/08/01 11:20:25;;;;;;;1.20;1.00;;;;;;;20.72;97.75;97760.35;107681;1267;22527;-67
2023/08/01 11:23:00;;;;;;;1.20;0.90;;;;;;;20.72;97.58;97759.30;107128;1266;98935;-67
2023/08/01 11:25:33;;;;;;;1.00;0.80;;;;;;;20.65;96.95;97762.88;107230;1266;22518;-65
2023/08/01 11:28:10;;;;;;;1.40;1.00;;;;;;;20.61;97.04;97761.59;107188;1256;99419;-65
2023/08/01 11:30:40;;;;;;;1.50;0.90;;;;;;;20.64;96.97;97762.05;106913;1269;23338;-64
2023/08/01 11:33:20;;;;;;;1.10;0.80;;;;;;;20.71;96.91;97760.47;107256;1266;22539;-64
2023/08/01 11:35:57;;;;;;;2.90;1.80;;;;;;;20.73;96.43;97760.25;107672;1270;22736;-68
2023/08/01 11:38:29;;;;;;;1.30;1.00;;;;;;;20.68;96.29;97761.90;106959;1269;22520;-65
2023/08/01 11:41:00;;;;;;;2.00;1.20;;;;;;;20.64;95.98;97759.97;106883;1267;98925;-60
2023/08/01 11:43:40;;;;;;;2.00;1.00;;;;;;;20.62;95.65;97761.20;107141;1269;22581;-64